KTRK

Truckee-Tahoe Airport

Truckee, California, USA
KTRK 181120Z 1812/1912 VRB03KT P6SM SCT050 BKN080 FM181900 30009KT P6SM SCT080 FM190300 VRB04KT P6SM FEW060
Issued Valid From Valid To
Jun-18 @ 11:20 UTC
(2 hours ago)
Jun-18 @ 12:00 UTC
(an hour ago)
Jun-19 @ 12:00 UTC
(in 23 hours)
Jun-18 @ 12:00 to Jun-18 @ 19:00
KTRK 181120Z 1812/1912 VRB03KT P6SM SCT050 BKN080
Wind Visibility Clouds
Variable at 3 knots Greater than 6 miles
  • Scattered at 5,000' AGL
  • Broken at 8,000' AGL
From Jun-18 @ 19:00 to Jun-19 @ 03:00
FM181900 30009KT P6SM SCT080
Wind Visibility Clouds
300° at 9 knots Greater than 6 miles
  • Scattered at 8,000' AGL
From Jun-19 @ 03:00 to Jun-19 @ 12:00
FM190300 VRB04KT P6SM FEW060
Wind Visibility Clouds
Variable at 4 knots Greater than 6 miles
  • Few at 6,000' AGL
KTRK 181120Z 1812/1912 VRB03KT P6SM SCT050 BKN080 FM181900 30009KT P6SM SCT080 FM190300 VRB04KT P6SM FEW060
Issued Jun-18 @ 11:20 UTC
(2 hours ago)
Valid From Jun-18 @ 12:00 UTC
(an hour ago)
Valid To Jun-19 @ 12:00 UTC
(in 23 hours)
Jun-18 @ 12:00 - Jun-18 @ 19:00
Wind Visibility
Variable at 3 knots Greater than 6 miles
Clouds
  • Scattered at 5,000' AGL
  • Broken at 8,000' AGL
From Jun-18 @ 19:00 - Jun-19 @ 03:00
Wind Visibility
300° at 9 knots Greater than 6 miles
Clouds
  • Scattered at 8,000' AGL
From Jun-19 @ 03:00 - Jun-19 @ 12:00
Wind Visibility
Variable at 4 knots Greater than 6 miles
Clouds
  • Few at 6,000' AGL